Time;durP1;ratioP1;P1;durP2;ratioP2;P2;SDS_P1;SDS_P2;PMS_P1;PMS_P2;Temp;Humidity;BMP_temperature;BMP_pressure;BME280_temperature;BME280_humidity;BME280_pressure;Samples;Min_cycle;Max_cycle;Signal;HPM_P1;HPM_P2
2022/12/02 00:01:32;;;;;;;12.55;8.65;;;10.40;99.90;;;;;;5111335;28;20028;-49
2022/12/02 00:03:57;;;;;;;12.18;7.82;;;10.50;99.90;;;;;;5111404;28;20038;-49
2022/12/02 00:06:30;;;;;;;11.27;7.90;;;11.80;99.90;;;;;;5111198;28;20028;-47
2022/12/02 00:09:06;;;;;;;11.57;7.75;;;13.50;99.90;;;;;;5111229;28;20059;-49
2022/12/02 00:11:31;;;;;;;11.60;7.68;;;14.00;98.50;;;;;;5115518;28;20036;-49
2022/12/02 00:14:00;;;;;;;10.65;7.85;;;13.70;98.20;;;;;;5115312;28;20065;-50
2022/12/02 00:16:26;;;;;;;13.73;8.68;;;13.10;98.80;;;;;;5115205;28;20031;-48
2022/12/02 00:18:54;;;;;;;11.98;8.50;;;12.60;99.60;;;;;;5114852;28;20024;-49
2022/12/02 00:21:21;;;;;;;12.00;8.77;;;12.00;99.90;;;;;;5115116;28;20024;-49
2022/12/02 00:23:47;;;;;;;13.55;9.35;;;11.50;99.90;;;;;;5115142;28;20155;-50
2022/12/02 00:26:12;;;;;;;12.43;8.32;;;11.00;99.90;;;;;;5115111;28;20104;-48
2022/12/02 00:28:38;;;;;;;12.75;8.75;;;10.70;99.90;;;;;;5114540;28;20513;-48
2022/12/02 00:31:04;;;;;;;14.23;8.95;;;10.50;99.90;;;;;;5115109;28;20039;-48
2022/12/02 00:33:30;;;;;;;13.90;8.82;;;10.40;99.90;;;;;;5115062;28;20027;-49
2022/12/02 00:35:56;;;;;;;12.70;8.57;;;11.40;99.90;;;;;;5114797;28;20032;-48
2022/12/02 00:38:21;;;;;;;10.98;7.75;;;13.10;99.90;;;;;;5114376;28;20059;-49
2022/12/02 00:40:47;;;;;;;12.85;8.88;;;13.90;98.80;;;;;;5114837;28;20074;-50
2022/12/02 00:48:41;;;;;;;12.18;8.40;;;12.60;99.50;;;;;;5114235;28;20123;-48
2022/12/02 00:51:07;;;;;;;13.48;8.95;;;11.90;99.90;;;;;;5114715;28;20055;-49
2022/12/02 00:53:33;;;;;;;13.23;8.80;;;11.50;99.90;;;;;;5114705;28;20435;-50
2022/12/02 00:55:58;;;;;;;12.93;8.85;;;11.10;99.90;;;;;;5114643;28;20370;-50
2022/12/02 00:58:24;;;;;;;14.63;9.07;;;10.80;99.90;;;;;;5114044;28;20024;-49
2022/12/02 01:00:50;;;;;;;12.13;9.02;;;10.50;99.90;;;;;;5114406;28;20099;-48
2022/12/02 01:03:16;;;;;;;15.38;10.02;;;10.30;99.90;;;;;;5114447;28;20031;-50
2022/12/02 01:05:41;;;;;;;12.35;8.80;;;11.20;99.90;;;;;;5114316;28;20209;-50
2022/12/02 01:08:07;;;;;;;15.50;9.48;;;12.90;99.90;;;;;;5113808;28;20388;-51
2022/12/02 01:10:33;;;;;;;12.63;9.10;;;13.90;98.80;;;;;;5114253;28;20016;-49
2022/12/02 01:12:58;;;;;;;13.13;9.00;;;13.90;98.10;;;;;;5114413;28;20616;-47
2022/12/02 01:15:24;;;;;;;13.18;9.52;;;13.40;98.40;;;;;;5114755;28;20066;-49
2022/12/02 01:17:49;;;;;;;14.98;9.85;;;12.80;99.00;;;;;;5113826;28;20326;-48
2022/12/02 01:20:15;;;;;;;14.27;9.68;;;12.20;99.90;;;;;;5113187;27;20023;-49
2022/12/02 01:22:41;;;;;;;13.77;9.80;;;11.60;99.90;;;;;;5113955;28;20024;-49
2022/12/02 01:25:07;;;;;;;15.82;10.02;;;11.20;99.90;;;;;;5113997;27;20072;-51
2022/12/02 01:27:33;;;;;;;15.27;10.10;;;10.90;99.90;;;;;;5113802;28;20024;-50
2022/12/02 01:29:58;;;;;;;16.08;10.07;;;10.60;99.90;;;;;;5113576;28;20623;-50
2022/12/02 01:32:24;;;;;;;15.23;9.93;;;10.40;99.90;;;;;;5113915;28;20058;-48
2022/12/02 01:34:50;;;;;;;13.95;9.60;;;10.20;99.90;;;;;;5113837;28;20044;-48
2022/12/02 01:37:16;;;;;;;13.57;9.75;;;10.00;99.90;;;;;;5113846;28;20015;-50
2022/12/02 01:39:41;;;;;;;15.90;9.65;;;10.50;99.90;;;;;;5113179;28;20081;-47
2022/12/02 01:42:08;;;;;;;14.75;10.07;;;12.00;99.90;;;;;;5113766;28;20473;-48
2022/12/02 01:44:34;;;;;;;13.73;9.45;;;13.70;99.80;;;;;;5113588;28;20051;-48
2022/12/02 01:46:59;;;;;;;14.60;9.68;;;14.10;98.10;;;;;;5113402;28;20062;-48
2022/12/02 01:49:25;;;;;;;12.85;9.00;;;13.80;97.90;;;;;;5112973;28;20019;-48
2022/12/02 01:51:51;;;;;;;15.50;10.15;;;13.30;98.40;;;;;;5113455;27;20035;-48
2022/12/02 01:54:17;;;;;;;15.43;9.90;;;12.60;99.20;;;;;;5113419;28;20068;-48
2022/12/02 01:56:43;;;;;;;13.73;9.50;;;12.00;99.90;;;;;;5113327;28;20020;-48
2022/12/02 01:59:11;;;;;;;14.40;9.82;;;11.50;99.90;;;;;;5112856;28;20097;-48
2022/12/02 02:01:37;;;;;;;15.10;10.20;;;11.10;99.90;;;;;;5113211;28;20111;-50
2022/12/02 02:04:03;;;;;;;15.65;10.57;;;10.80;99.90;;;;;;5113634;28;20160;-48
2022/12/02 02:06:32;;;;;;;15.85;10.02;;;10.50;99.90;;;;;;5112995;28;20020;-50
2022/12/02 02:08:58;;;;;;;16.02;10.30;;;10.30;99.90;;;;;;5111315;28;20552;-49
2022/12/02 02:11:25;;;;;;;18.70;11.25;;;10.10;99.90;;;;;;5113085;28;20106;-48
2022/12/02 02:13:51;;;;;;;15.15;10.48;;;10.20;99.90;;;;;;5112986;28;20053;-48
2022/12/02 02:16:17;;;;;;;15.32;10.52;;;11.40;99.90;;;;;;5113100;28;20114;-49
2022/12/02 02:18:42;;;;;;;16.98;11.18;;;13.20;99.90;;;;;;5112423;28;20544;-49
2022/12/02 02:21:14;;;;;;;13.57;9.60;;;14.10;98.40;;;;;;5112860;28;20036;-50
2022/12/02 02:23:39;;;;;;;15.80;10.15;;;13.90;97.80;;;;;;5112891;28;20037;-52
2022/12/02 02:26:05;;;;;;;15.13;10.00;;;13.50;98.20;;;;;;5112670;27;20094;-48
2022/12/02 02:28:32;;;;;;;17.52;10.60;;;12.80;98.90;;;;;;5112084;28;20012;-48
2022/12/02 02:30:58;;;;;;;14.18;9.98;;;12.20;99.70;;;;;;5112695;28;20099;-50
2022/12/02 02:33:27;;;;;;;14.55;9.70;;;11.60;99.90;;;;;;5111805;28;20024;-49
2022/12/02 02:35:53;;;;;;;14.60;10.15;;;11.20;99.90;;;;;;5111598;28;20377;-48
2022/12/02 02:38:22;;;;;;;14.38;10.30;;;10.80;99.90;;;;;;5112135;28;20035;-48
2022/12/02 02:40:49;;;;;;;14.52;10.25;;;10.60;99.90;;;;;;5112503;27;20123;-49
2022/12/02 02:43:16;;;;;;;16.02;10.63;;;10.40;99.90;;;;;;5112480;28;20029;-48
2022/12/02 02:45:43;;;;;;;17.02;10.93;;;10.20;99.90;;;;;;5112393;28;20055;-48
2022/12/02 02:48:11;;;;;;;13.88;9.98;;;10.00;99.90;;;;;;5111915;28;20023;-50
2022/12/02 02:50:41;;;;;;;16.58;11.15;;;10.00;99.90;;;;;;5112326;28;20019;-48
2022/12/02 02:53:07;;;;;;;16.73;10.02;;;9.90;99.90;;;;;;5112229;27;20016;-48
2022/12/02 02:55:33;;;;;;;16.17;10.77;;;9.80;99.90;;;;;;5112194;28;20032;-48
2022/12/02 02:58:14;;;;;;;16.55;11.20;;;9.80;99.90;;;;;;5111681;28;20102;-49
2022/12/02 03:01:07;;;;;;;16.90;10.65;;;9.70;99.90;;;;;;5110872;28;20028;-50
2022/12/02 03:03:36;;;;;;;15.75;10.00;;;9.70;99.90;;;;;;5112213;28;20027;-49
2022/12/02 03:06:04;;;;;;;14.82;10.05;;;10.90;99.90;;;;;;5110532;28;20028;-49
2022/12/02 03:08:30;;;;;;;16.05;10.63;;;12.80;99.90;;;;;;5111478;28;20084;-48
2022/12/02 03:10:59;;;;;;;13.45;9.52;;;14.20;98.70;;;;;;5112145;28;20106;-50
2022/12/02 03:13:26;;;;;;;14.18;9.55;;;14.40;97.50;;;;;;5112248;28;20385;-47
2022/12/02 03:15:52;;;;;;;16.35;10.32;;;13.90;97.60;;;;;;5111855;28;20431;-50
2022/12/02 03:18:18;;;;;;;17.25;10.15;;;13.20;98.30;;;;;;5111272;28;20058;-51
2022/12/02 03:20:44;;;;;;;15.55;10.52;;;12.50;99.20;;;;;;5111466;27;20523;-50
2022/12/02 03:23:10;;;;;;;14.68;9.98;;;11.90;99.90;;;;;;5111822;28;20083;-50
2022/12/02 03:25:36;;;;;;;15.48;10.23;;;11.40;99.90;;;;;;5111652;28;20488;-51
2022/12/02 03:28:02;;;;;;;15.65;10.13;;;11.00;99.90;;;;;;5111222;28;20016;-50
2022/12/02 03:30:27;;;;;;;15.82;10.88;;;10.70;99.90;;;;;;5111642;28;20165;-50
2022/12/02 03:32:53;;;;;;;16.42;10.48;;;10.50;99.90;;;;;;5111748;28;20357;-50
2022/12/02 03:35:19;;;;;;;15.90;10.48;;;11.20;99.90;;;;;;5111500;28;20031;-50
2022/12/02 03:37:44;;;;;;;13.02;9.23;;;12.90;99.90;;;;;;5111448;28;20023;-49
2022/12/02 03:40:11;;;;;;;13.55;10.10;;;13.80;98.60;;;;;;5111379;28;20030;-50
2022/12/02 03:42:37;;;;;;;15.43;10.20;;;13.70;98.00;;;;;;5111349;28;20535;-48
2022/12/02 03:45:03;;;;;;;15.02;10.68;;;13.30;98.30;;;;;;5111325;28;20027;-49
2022/12/02 03:47:29;;;;;;;13.82;9.77;;;12.70;99.00;;;;;;5111288;28;20107;-48
2022/12/02 03:49:56;;;;;;;15.93;10.32;;;12.00;99.80;;;;;;5110904;28;20482;-49
2022/12/02 03:52:22;;;;;;;16.20;10.77;;;11.50;99.90;;;;;;5111545;28;20110;-49
2022/12/02 03:54:48;;;;;;;17.58;11.25;;;11.10;99.90;;;;;;5111432;28;20103;-50
2022/12/02 03:57:13;;;;;;;13.80;9.73;;;10.80;99.90;;;;;;5111509;28;20028;-49
2022/12/02 03:59:39;;;;;;;16.02;10.18;;;10.50;99.90;;;;;;5111200;28;20088;-49
2022/12/02 04:02:05;;;;;;;15.60;9.77;;;10.40;99.90;;;;;;5111352;28;20523;-50
2022/12/02 04:04:30;;;;;;;15.55;10.07;;;10.60;99.90;;;;;;5111289;28;20088;-47
2022/12/02 04:06:56;;;;;;;13.85;9.00;;;12.10;99.90;;;;;;5111370;28;20028;-49
2022/12/02 04:09:22;;;;;;;14.25;9.60;;;13.70;99.30;;;;;;5111033;28;20465;-50
2022/12/02 04:11:47;;;;;;;15.38;9.75;;;14.00;98.00;;;;;;5111242;28;20468;-49
2022/12/02 04:14:13;;;;;;;14.70;9.77;;;13.70;97.80;;;;;;5111269;28;20016;-50
2022/12/02 04:16:38;;;;;;;12.65;9.32;;;13.10;98.40;;;;;;5111092;28;20031;-48
2022/12/02 04:19:04;;;;;;;14.95;10.07;;;12.40;99.30;;;;;;5110594;28;20133;-48
2022/12/02 04:21:30;;;;;;;13.13;9.65;;;11.90;99.90;;;;;;5111382;28;20412;-50
2022/12/02 04:23:55;;;;;;;14.98;10.48;;;11.40;99.90;;;;;;5110109;28;20468;-49
2022/12/02 04:26:21;;;;;;;14.35;9.73;;;11.00;99.90;;;;;;5110990;28;20028;-50
2022/12/02 04:28:46;;;;;;;17.83;10.65;;;10.70;99.90;;;;;;5110507;28;20057;-48
2022/12/02 04:31:13;;;;;;;16.17;10.57;;;10.50;99.90;;;;;;5111090;28;20037;-47
2022/12/02 04:33:38;;;;;;;15.68;10.07;;;10.40;99.90;;;;;;5110981;28;20020;-48
2022/12/02 04:36:04;;;;;;;17.10;10.32;;;11.50;99.90;;;;;;5110971;28;20041;-49
2022/12/02 04:38:30;;;;;;;13.70;9.48;;;13.20;99.90;;;;;;5110490;28;20055;-48
2022/12/02 04:40:55;;;;;;;14.38;9.57;;;13.90;98.20;;;;;;5110892;28;20070;-49
2022/12/02 04:43:21;;;;;;;14.55;10.00;;;13.80;97.80;;;;;;5110966;28;20616;-50
2022/12/02 04:45:47;;;;;;;16.30;10.25;;;13.20;98.20;;;;;;5110783;28;20027;-49
2022/12/02 04:48:12;;;;;;;15.52;9.90;;;12.50;99.00;;;;;;5110287;28;20035;-48
2022/12/02 04:50:38;;;;;;;14.15;9.88;;;12.00;99.90;;;;;;5110931;28;20027;-49
2022/12/02 04:53:04;;;;;;;16.15;9.85;;;11.50;99.90;;;;;;5111084;28;20047;-48
2022/12/02 04:55:29;;;;;;;17.75;11.52;;;11.10;99.90;;;;;;5111921;28;20026;-51
2022/12/02 04:57:55;;;;;;;14.18;10.15;;;10.80;99.90;;;;;;5114119;28;20059;-50
2022/12/02 05:00:21;;;;;;;15.57;10.25;;;10.50;99.90;;;;;;5114546;28;20019;-50
2022/12/02 05:02:46;;;;;;;16.65;10.50;;;10.30;99.90;;;;;;5114380;28;20044;-49
2022/12/02 05:05:12;;;;;;;16.20;9.88;;;11.00;99.90;;;;;;5114517;28;20612;-47
2022/12/02 05:07:38;;;;;;;15.52;10.30;;;12.60;99.90;;;;;;5114257;28;20156;-49
2022/12/02 05:10:04;;;;;;;15.20;9.50;;;13.80;98.70;;;;;;5114069;28;20019;-49
2022/12/02 05:12:30;;;;;;;15.60;9.70;;;13.90;97.80;;;;;;5114285;28;20051;-51
2022/12/02 05:14:55;;;;;;;14.82;9.40;;;13.40;98.00;;;;;;5114282;28;20066;-49
2022/12/02 05:17:21;;;;;;;16.33;10.30;;;12.80;98.60;;;;;;5113948;28;20031;-48
2022/12/02 05:19:47;;;;;;;14.48;9.50;;;12.30;99.40;;;;;;5114020;28;20027;-48
2022/12/02 05:22:12;;;;;;;14.85;10.07;;;11.70;99.90;;;;;;5114160;28;20034;-48
2022/12/02 05:24:39;;;;;;;14.18;10.00;;;11.20;99.90;;;;;;5114121;28;20058;-50
2022/12/02 05:27:04;;;;;;;15.32;10.20;;;10.80;99.90;;;;;;5113878;28;20020;-49
2022/12/02 05:29:30;;;;;;;16.60;10.38;;;10.50;99.90;;;;;;5113412;28;20086;-48
2022/12/02 05:31:56;;;;;;;15.70;10.30;;;10.40;99.90;;;;;;5113865;28;20022;-49
2022/12/02 05:34:21;;;;;;;16.52;10.23;;;10.60;99.90;;;;;;5112788;28;20089;-49
2022/12/02 05:36:47;;;;;;;14.43;9.32;;;12.00;99.90;;;;;;5113814;28;20110;-48
2022/12/02 05:39:12;;;;;;;14.00;9.05;;;13.60;99.30;;;;;;5113217;28;20023;-48
2022/12/02 05:41:38;;;;;;;14.68;9.82;;;13.90;97.90;;;;;;5113860;28;20477;-52
2022/12/02 05:44:25;;;;;;;13.05;9.10;;;13.60;97.80;;;;;;5113741;28;20059;-48
2022/12/02 05:46:51;;;;;;;13.05;9.77;;;12.90;98.40;;;;;;5112120;28;20118;-50
2022/12/02 05:49:19;;;;;;;16.13;10.35;;;12.30;99.20;;;;;;5113085;28;20099;-50
2022/12/02 05:51:56;;;;;;;13.30;9.50;;;11.80;99.90;;;;;;5113579;28;20039;-50
2022/12/02 05:54:22;;;;;;;15.02;10.27;;;11.30;99.90;;;;;;5113522;28;20046;-49
2022/12/02 05:56:48;;;;;;;14.48;9.93;;;10.90;99.90;;;;;;5113238;28;20020;-48
2022/12/02 05:59:17;;;;;;;16.77;10.05;;;10.60;99.90;;;;;;5112804;28;20028;-50
2022/12/02 06:01:48;;;;;;;17.13;10.32;;;10.40;99.90;;;;;;5113302;28;20024;-48
2022/12/02 06:04:21;;;;;;;15.13;10.05;;;10.50;99.90;;;;;;5113338;28;20019;-50
2022/12/02 06:06:47;;;;;;;15.95;9.82;;;11.90;99.90;;;;;;5113360;28;20027;-49
2022/12/02 06:09:19;;;;;;;13.27;9.40;;;13.70;99.30;;;;;;5112493;28;20085;-48
2022/12/02 06:11:46;;;;;;;15.52;9.98;;;14.00;97.70;;;;;;5113353;28;20159;-50
2022/12/02 06:14:17;;;;;;;13.98;9.80;;;13.60;97.70;;;;;;5111919;28;20019;-47
2022/12/02 06:16:51;;;;;;;14.45;9.52;;;13.00;98.30;;;;;;5113004;28;20023;-48
2022/12/02 06:19:33;;;;;;;17.67;10.60;;;12.30;99.10;;;;;;5112693;28;20037;-50
2022/12/02 06:22:00;;;;;;;13.30;9.38;;;11.70;99.90;;;;;;5113000;28;20024;-49
2022/12/02 06:24:31;;;;;;;14.88;9.93;;;11.30;99.90;;;;;;5112939;28;20067;-48
2022/12/02 06:26:59;;;;;;;14.50;9.73;;;10.90;99.90;;;;;;5112712;28;20030;-48
2022/12/02 06:29:29;;;;;;;16.63;10.45;;;10.60;99.90;;;;;;5112290;28;20020;-48
2022/12/02 06:31:55;;;;;;;15.88;10.45;;;10.40;99.90;;;;;;5112713;28;20031;-50
2022/12/02 06:34:39;;;;;;;17.02;10.95;;;10.50;99.90;;;;;;5113190;28;20027;-50
2022/12/02 06:37:14;;;;;;;13.13;9.23;;;12.10;99.90;;;;;;5112687;28;20069;-50
2022/12/02 06:39:41;;;;;;;15.20;9.77;;;13.70;99.00;;;;;;5111974;28;20615;-50
2022/12/02 06:42:18;;;;;;;13.25;9.18;;;14.00;97.60;;;;;;5112634;28;20477;-50
2022/12/02 06:47:35;;;;;;;15.18;9.82;;;13.00;98.30;;;;;;5112363;28;20062;-53
2022/12/02 06:50:03;;;;;;;15.57;10.13;;;12.20;99.20;;;;;;5112114;28;20103;-49
2022/12/02 06:52:36;;;;;;;15.15;9.75;;;11.70;99.90;;;;;;5112405;28;20038;-50
2022/12/02 06:55:06;;;;;;;15.30;10.13;;;11.20;99.90;;;;;;5112253;28;20020;-49
2022/12/02 06:57:32;;;;;;;15.48;10.45;;;10.80;99.90;;;;;;5112143;28;20461;-48
2022/12/02 06:59:57;;;;;;;17.42;10.40;;;10.50;99.90;;;;;;5111745;28;20055;-50
2022/12/02 07:02:30;;;;;;;16.15;10.10;;;10.40;99.90;;;;;;5112261;28;20023;-50
2022/12/02 07:04:57;;;;;;;18.38;11.48;;;10.20;99.90;;;;;;5112165;28;20058;-49
2022/12/02 07:07:27;;;;;;;19.45;11.70;;;10.00;99.90;;;;;;5111829;28;20526;-50
2022/12/02 07:10:20;;;;;;;17.52;11.35;;;9.90;99.90;;;;;;5111495;28;20027;-49
2022/12/02 07:12:47;;;;;;;19.50;11.40;;;9.80;99.90;;;;;;5110491;28;20031;-50
2022/12/02 07:15:26;;;;;;;16.20;10.98;;;9.80;99.90;;;;;;5111907;28;20030;-48
2022/12/02 07:17:55;;;;;;;18.27;11.27;;;9.70;99.90;;;;;;5111066;28;20023;-48
2022/12/02 07:20:31;;;;;;;15.93;10.63;;;9.70;99.90;;;;;;5111666;28;20107;-48
2022/12/02 07:23:15;;;;;;;18.30;11.48;;;9.60;99.90;;;;;;5111804;28;20546;-50
2022/12/02 07:25:46;;;;;;;17.08;10.75;;;9.60;99.90;;;;;;5111717;28;20098;-48
2022/12/02 07:28:34;;;;;;;20.38;11.85;;;9.50;99.90;;;;;;5111276;28;20081;-50
2022/12/02 07:31:17;;;;;;;19.75;11.65;;;9.50;99.90;;;;;;5111833;28;20461;-48
2022/12/02 07:33:43;;;;;;;19.50;10.73;;;9.50;99.90;;;;;;5111928;28;20110;-49
2022/12/02 07:36:09;;;;;;;17.17;11.23;;;9.50;99.90;;;;;;5111630;28;20133;-51
2022/12/02 07:38:34;;;;;;;16.52;10.55;;;9.40;99.90;;;;;;5111032;28;20083;-50
2022/12/02 07:41:00;;;;;;;18.50;11.13;;;9.40;99.90;;;;;;5111436;28;20058;-48
2022/12/02 07:43:25;;;;;;;17.17;10.57;;;9.40;99.90;;;;;;5111879;28;20034;-50
2022/12/02 07:45:51;;;;;;;20.15;10.68;;;9.40;99.90;;;;;;5111651;28;20097;-49
2022/12/02 07:48:17;;;;;;;18.27;11.48;;;9.40;99.90;;;;;;5111000;28;20077;-49
2022/12/02 07:50:42;;;;;;;18.20;11.00;;;9.40;99.90;;;;;;5111537;28;20048;-47
2022/12/02 07:53:08;;;;;;;19.58;11.48;;;9.40;99.90;;;;;;5111421;28;20106;-51
2022/12/02 07:55:34;;;;;;;17.95;11.57;;;9.40;99.90;;;;;;5111381;28;20035;-49
2022/12/02 07:58:00;;;;;;;19.58;11.85;;;9.40;99.90;;;;;;5110870;28;20016;-48
2022/12/02 08:00:25;;;;;;;18.05;11.55;;;9.40;99.90;;;;;;5111238;28;20020;-50
2022/12/02 08:02:51;;;;;;;18.98;11.10;;;9.30;99.90;;;;;;5111426;28;20027;-48
2022/12/02 08:05:17;;;;;;;15.95;10.40;;;9.30;99.90;;;;;;5111318;28;20062;-48
2022/12/02 08:07:42;;;;;;;18.30;11.85;;;9.40;99.90;;;;;;5111162;28;20055;-51
2022/12/02 08:10:08;;;;;;;18.08;11.05;;;9.40;99.90;;;;;;5110816;28;20023;-48
2022/12/02 08:12:34;;;;;;;19.73;11.35;;;9.40;99.90;;;;;;5111326;28;20114;-49
2022/12/02 08:15:00;;;;;;;17.23;10.85;;;9.40;99.90;;;;;;5111383;28;20107;-50
2022/12/02 08:17:25;;;;;;;16.45;10.23;;;9.30;99.90;;;;;;5111165;28;20023;-50
2022/12/02 08:19:51;;;;;;;18.77;11.77;;;9.40;99.90;;;;;;5110624;28;20076;-50
2022/12/02 08:22:17;;;;;;;20.75;12.15;;;9.40;99.90;;;;;;5111251;28;20019;-47
2022/12/02 08:24:42;;;;;;;19.75;11.30;;;9.40;99.90;;;;;;5109823;28;20023;-50
2022/12/02 08:27:08;;;;;;;17.80;10.90;;;9.40;99.90;;;;;;5111080;28;20042;-48
2022/12/02 08:29:34;;;;;;;18.05;10.82;;;9.40;99.90;;;;;;5110643;28;20023;-49
2022/12/02 08:31:59;;;;;;;18.05;11.00;;;9.30;99.90;;;;;;5114809;28;20050;-49
2022/12/02 08:34:25;;;;;;;18.48;11.65;;;9.30;99.90;;;;;;5115082;28;20032;-48
2022/12/02 08:36:51;;;;;;;19.02;11.35;;;9.30;99.90;;;;;;5115025;28;20031;-48
2022/12/02 08:39:16;;;;;;;18.20;11.48;;;9.30;99.90;;;;;;5114305;27;20035;-48
2022/12/02 08:41:42;;;;;;;17.15;11.25;;;9.30;99.90;;;;;;5114910;28;20029;-47
2022/12/02 08:44:08;;;;;;;16.88;10.98;;;9.30;99.90;;;;;;5115088;28;20063;-48
2022/12/02 08:46:35;;;;;;;18.88;11.23;;;9.30;99.90;;;;;;5114753;28;20080;-50
2022/12/02 08:49:02;;;;;;;18.20;10.32;;;9.30;99.90;;;;;;5114385;28;20389;-50
2022/12/02 08:51:28;;;;;;;18.75;11.77;;;9.30;99.90;;;;;;5114959;28;20426;-49
2022/12/02 08:53:54;;;;;;;15.73;10.68;;;9.30;99.90;;;;;;5114620;28;20020;-50
2022/12/02 08:56:20;;;;;;;17.85;11.07;;;9.30;99.90;;;;;;5114629;28;20024;-48
2022/12/02 08:58:45;;;;;;;17.35;11.02;;;9.30;99.90;;;;;;5114355;28;20031;-48
2022/12/02 09:01:11;;;;;;;17.08;10.85;;;9.30;99.90;;;;;;5114625;28;20023;-48
2022/12/02 09:03:36;;;;;;;17.33;11.30;;;9.30;99.90;;;;;;5114598;28;20366;-50
2022/12/02 09:06:02;;;;;;;17.27;10.50;;;9.30;99.90;;;;;;5114366;28;20102;-49
2022/12/02 09:08:28;;;;;;;18.23;10.90;;;9.30;99.90;;;;;;5113781;28;20016;-48
2022/12/02 09:10:54;;;;;;;18.33;10.60;;;9.30;99.90;;;;;;5114404;27;20418;-49
2022/12/02 09:13:20;;;;;;;17.30;11.38;;;9.30;99.90;;;;;;5114384;28;20038;-47
2022/12/02 09:15:45;;;;;;;16.85;10.63;;;9.30;99.90;;;;;;5114294;28;20094;-48
2022/12/02 09:18:11;;;;;;;17.25;10.93;;;9.30;99.90;;;;;;5113862;28;20023;-49
2022/12/02 09:20:36;;;;;;;19.25;10.85;;;9.30;99.90;;;;;;5114262;28;20027;-48
2022/12/02 09:23:02;;;;;;;15.48;10.43;;;9.30;99.90;;;;;;5114161;28;20530;-48
2022/12/02 09:25:28;;;;;;;18.10;10.75;;;9.30;99.90;;;;;;5114255;28;20027;-48
2022/12/02 09:27:53;;;;;;;18.13;11.38;;;9.30;99.90;;;;;;5113659;28;20023;-48
2022/12/02 09:30:19;;;;;;;18.92;11.48;;;9.30;99.90;;;;;;5114029;28;20362;-48
2022/12/02 09:32:45;;;;;;;18.88;11.38;;;9.30;99.90;;;;;;5114008;28;20023;-49
2022/12/02 09:35:10;;;;;;;16.00;10.50;;;9.30;99.90;;;;;;5113915;28;20048;-48
2022/12/02 09:37:36;;;;;;;17.40;10.48;;;9.30;99.90;;;;;;5113601;28;20118;-50
2022/12/02 09:40:03;;;;;;;17.25;10.57;;;9.20;99.90;;;;;;5113357;28;20034;-50
2022/12/02 09:42:28;;;;;;;18.80;10.43;;;9.30;99.90;;;;;;5113258;28;20024;-48
2022/12/02 09:44:55;;;;;;;16.33;11.27;;;9.30;99.90;;;;;;5113772;28;20061;-48
2022/12/02 09:47:22;;;;;;;19.35;11.18;;;9.30;99.90;;;;;;5113527;28;20015;-48
2022/12/02 09:49:48;;;;;;;17.50;11.07;;;9.30;99.90;;;;;;5113273;28;20092;-48
2022/12/02 09:52:25;;;;;;;15.77;10.20;;;9.30;99.90;;;;;;5113516;28;20362;-50
2022/12/02 09:54:56;;;;;;;17.98;10.52;;;9.30;99.90;;;;;;5113798;28;20023;-50
2022/12/02 09:57:29;;;;;;;20.25;10.65;;;9.30;99.90;;;;;;5113496;28;20031;-50
2022/12/02 09:59:57;;;;;;;17.10;10.35;;;9.30;99.90;;;;;;5113228;28;20032;-51
2022/12/02 10:02:35;;;;;;;16.83;10.18;;;9.30;99.90;;;;;;5113527;28;20055;-49
2022/12/02 10:05:11;;;;;;;17.15;10.50;;;9.20;99.90;;;;;;5113591;27;20027;-47
2022/12/02 10:07:37;;;;;;;16.15;10.35;;;9.30;99.90;;;;;;5113203;28;20464;-50
2022/12/02 10:10:04;;;;;;;16.50;10.63;;;9.30;99.90;;;;;;5112898;27;20058;-48
2022/12/02 10:12:29;;;;;;;15.80;10.15;;;9.30;99.90;;;;;;5113233;28;20028;-48
2022/12/02 10:14:57;;;;;;;16.95;10.38;;;9.30;99.90;;;;;;5113339;28;20026;-48
2022/12/02 10:17:23;;;;;;;18.50;10.32;;;9.30;99.90;;;;;;5112867;28;20099;-48
2022/12/02 10:19:49;;;;;;;17.73;10.13;;;9.30;99.90;;;;;;5112824;27;20038;-50
2022/12/02 10:22:20;;;;;;;15.90;10.38;;;9.30;99.90;;;;;;5111712;28;20442;-50
2022/12/02 10:24:46;;;;;;;16.63;10.13;;;9.30;99.90;;;;;;5113041;28;20028;-50
2022/12/02 10:27:28;;;;;;;16.17;10.15;;;9.30;99.90;;;;;;5112869;27;20038;-49
2022/12/02 10:30:12;;;;;;;16.75;9.82;;;9.30;99.90;;;;;;5112399;28;20024;-48
2022/12/02 10:32:38;;;;;;;14.20;9.32;;;9.30;99.90;;;;;;5112965;28;20024;-50
2022/12/02 10:35:09;;;;;;;17.65;10.25;;;9.30;99.90;;;;;;5113292;28;20077;-47
2022/12/02 10:37:35;;;;;;;14.63;9.23;;;9.30;99.90;;;;;;5112692;28;20019;-50
2022/12/02 10:40:11;;;;;;;16.08;9.23;;;9.20;99.90;;;;;;5112061;28;20500;-47
2022/12/02 10:42:37;;;;;;;15.43;9.43;;;9.20;99.90;;;;;;5112726;28;20122;-50
2022/12/02 10:45:22;;;;;;;14.77;9.43;;;9.20;99.90;;;;;;5112640;28;20103;-49
2022/12/02 10:47:49;;;;;;;14.73;8.93;;;9.30;99.90;;;;;;5112513;28;20054;-48
2022/12/02 10:50:23;;;;;;;18.65;9.65;;;9.30;99.90;;;;;;5112200;28;20142;-51
2022/12/02 10:52:56;;;;;;;16.33;9.23;;;9.20;99.90;;;;;;5111509;28;20522;-49
2022/12/02 10:55:23;;;;;;;14.38;8.50;;;9.30;99.90;;;;;;5112318;28;20031;-49
2022/12/02 10:57:50;;;;;;;14.32;9.10;;;9.30;99.90;;;;;;5112041;28;20492;-48
2022/12/02 11:00:21;;;;;;;14.35;8.90;;;9.30;99.90;;;;;;5112090;28;20034;-50
2022/12/02 11:02:58;;;;;;;15.40;9.30;;;9.30;99.90;;;;;;5112495;28;20020;-49
2022/12/02 11:05:32;;;;;;;15.93;9.13;;;9.30;99.90;;;;;;5112158;28;20035;-50
2022/12/02 11:08:14;;;;;;;13.13;8.07;;;9.30;99.90;;;;;;5111832;28;20497;-50
2022/12/02 11:10:43;;;;;;;14.40;8.75;;;9.30;99.90;;;;;;5112284;28;20560;-48
2022/12/02 11:13:11;;;;;;;12.23;7.85;;;9.20;99.90;;;;;;5112019;28;20055;-47
2022/12/02 11:15:51;;;;;;;12.70;8.15;;;9.20;99.90;;;;;;5112092;28;20020;-49
2022/12/02 11:18:29;;;;;;;14.05;8.13;;;9.30;99.90;;;;;;5111560;28;20485;-50
2022/12/02 11:21:02;;;;;;;13.20;8.15;;;9.20;99.90;;;;;;5111897;28;20470;-50
2022/12/02 11:23:29;;;;;;;13.05;7.28;;;9.20;99.90;;;;;;5111968;28;20054;-48
2022/12/02 11:26:10;;;;;;;14.77;8.77;;;9.20;99.90;;;;;;5111644;28;20473;-48
2022/12/02 11:29:06;;;;;;;13.75;7.85;;;9.20;99.90;;;;;;5111277;28;20031;-48
2022/12/02 11:31:32;;;;;;;12.13;7.38;;;9.20;99.90;;;;;;5103984;28;20034;-48
2022/12/02 11:34:02;;;;;;;13.00;7.55;;;9.20;99.90;;;;;;5111797;28;20015;-50
2022/12/02 11:36:29;;;;;;;12.68;8.05;;;9.20;99.90;;;;;;5111450;28;20032;-49
2022/12/02 11:39:00;;;;;;;12.80;7.70;;;9.20;99.90;;;;;;5111021;28;20038;-53
2022/12/02 11:41:51;;;;;;;11.35;7.50;;;9.20;99.90;;;;;;5111645;28;20054;-47
2022/12/02 11:44:24;;;;;;;12.40;7.20;;;9.20;99.90;;;;;;5111497;28;20128;-49
2022/12/02 11:46:58;;;;;;;12.18;7.65;;;9.20;99.90;;;;;;5111353;28;20036;-48
2022/12/02 11:49:36;;;;;;;12.95;7.40;;;9.30;99.90;;;;;;5111102;28;20290;-48
2022/12/02 11:52:23;;;;;;;10.88;7.18;;;9.20;99.90;;;;;;5111593;28;20034;-49
2022/12/02 11:55:04;;;;;;;10.43;7.53;;;9.20;99.90;;;;;;5111300;28;20480;-49
2022/12/02 11:57:42;;;;;;;11.50;7.40;;;9.20;99.90;;;;;;5111301;28;20487;-48
2022/12/02 12:00:23;;;;;;;10.57;7.00;;;9.20;99.90;;;;;;5111121;28;20073;-50
2022/12/02 12:03:11;;;;;;;10.15;6.82;;;9.20;99.90;;;;;;5111384;28;20015;-48
2022/12/02 12:05:38;;;;;;;10.88;7.22;;;9.20;99.90;;;;;;5114444;28;20491;-48
2022/12/02 12:08:04;;;;;;;10.20;6.38;;;9.30;99.90;;;;;;5115039;28;20032;-49
2022/12/02 12:10:30;;;;;;;10.75;6.85;;;9.20;99.90;;;;;;5115601;28;20474;-50
2022/12/02 12:13:16;;;;;;;10.38;6.80;;;9.30;99.90;;;;;;5115594;28;20041;-49
2022/12/02 12:15:50;;;;;;;9.60;6.45;;;9.20;99.90;;;;;;5115427;28;20020;-47
2022/12/02 12:18:44;;;;;;;9.95;7.18;;;9.20;99.90;;;;;;5114857;28;20019;-47
2022/12/02 12:21:31;;;;;;;10.43;6.53;;;9.20;99.90;;;;;;5115522;28;20038;-50
2022/12/02 12:26:50;;;;;;;8.82;5.88;;;9.20;99.90;;;;;;5115558;28;20028;-49
2022/12/02 12:29:17;;;;;;;8.50;6.07;;;9.20;99.90;;;;;;5114714;28;20076;-48
2022/12/02 12:31:43;;;;;;;10.68;6.55;;;9.20;99.90;;;;;;5115154;28;20065;-48
2022/12/02 12:34:10;;;;;;;10.13;6.40;;;9.20;99.90;;;;;;5115196;28;20024;-50
2022/12/02 12:36:37;;;;;;;7.95;5.65;;;9.20;99.90;;;;;;5115108;27;20020;-48
2022/12/02 12:39:04;;;;;;;9.40;6.40;;;9.20;99.90;;;;;;5114156;28;20063;-49
2022/12/02 12:41:30;;;;;;;10.13;6.13;;;9.20;99.90;;;;;;5115129;28;20565;-47
2022/12/02 12:43:56;;;;;;;10.93;6.47;;;9.20;99.90;;;;;;5115014;28;20059;-49
2022/12/02 12:46:21;;;;;;;8.60;5.70;;;9.20;99.90;;;;;;5114720;28;20098;-49
2022/12/02 12:48:47;;;;;;;8.98;5.80;;;9.20;99.90;;;;;;5114359;28;20366;-48
2022/12/02 12:51:13;;;;;;;8.77;6.03;;;9.20;99.90;;;;;;5114826;28;20035;-48
2022/12/02 12:53:39;;;;;;;8.90;6.22;;;9.20;99.90;;;;;;5113489;27;20023;-50